Fort Benning, GA

4:30 AM EST on January 30, 2015 (GMT -0500)
Columbus Metro | Change Station
CLOSE
Current Station
Airport
Location: Columbus,
Elevation: 397 ft
Nearby Weather Stations

Elev 397 ft 32.52 °N, 84.94 °W | Updated 39 minutes ago

Partly Cloudy
Partly Cloudy
51 °F
Feels Like 51 °F
N
13
Wind Variable Wind from NNW
Gusts 21 mph

Today
High -- | Low -- °F
--% Chance of Precip.
Yesterday
High -- | Low -- °F
Precip. -- in
7:35 AM 6:10 PM
Waxing Gibbous, 81% visible
Pressure 30.16 in
Visibility 10.0 miles
Clouds Clear
Dew Point 39 °F
Humidity 63%
Rainfall 0.00 in
Snow Depth Not available.
UV 0 out of 12
Pollen 3.40 out of 12
Air Quality Not available.
Flu Activity Not available.
METAR KCSG 300851Z 34011G18KT 10SM CLR 11/04 A3016 RMK AO2 PK WND 34028/0759 SLP213 T01060039 53014

More Conditions Fewer Conditions

Pressure 30.16 in
Visibility 10.0 miles
Clouds Clear
Dew Point 39 °F
Humidity 63%
Rainfall 0.00 in
Snow Depth Not available.
UV 0 out of 12
Pollen 3.40 out of 12
Air Quality Not available.
Flu Activity Not available.
METAR KCSG 300851Z 34011G18KT 10SM CLR 11/04 A3016 RMK AO2 PK WND 34028/0759 SLP213 T01060039 53014

More Conditions Fewer Conditions

10-Day Weather Forecast

Almanac

Astronomy

Jan. 30, 2015 Rise Set
Actual Time
Civil Twilight
Nautical Twilight
Astronomical Twilight
Moon
Length of Visible Light
Length of Day
Tomorrow will be .
, % of the Moon is Illuminated

Today's Extremes

State Highs State Lows

Community

WunderPhotos

Upload Photos

1,791,737 photos uploaded!

WunderBlogs® & News

Nearby

Air Quality

  Air Quality AQ Index Pollutant
Not available.

Snow Depth

Station Depth Elevation

Earthquake Activity

City Distance Mag. Time & Date
Minimum magnitude displayed is 2.5.

Coastal Water Temperatures

Place Temperature

Nearby Weather Stations